Portada
METAR-TAF:

METAR-TAF

Aeroports :

Mécheria, Algèria

latitud: 34-56N, longitud: 000-26W, altitud: 1149 m

Observació

L'informe es va fer fa 9 hores i 28 minuts, a les 18:00 UTC
Vent 10 kt del Sud
Temperatura 9°C
Humitat 49%
Pressió 1023 hPa
Visibilitat 10 km o més
sense núvols per sota de 1500 mi sense presència de cumulonimbus.

METAR: DAAY 241800Z 18010KT CAVOK 09/M01 Q1023

Hora: 04:28 (03:28 UTC)

Pronòstic

L'informe es va fer fa 1 hora i 28 minuts, a les 02:00 UTC
Pronòstic vàlid del 25 a les 03 UTC al 25 a les 12 UTC
Vent 10 kt del Sud
Visibilitat 10 km o més
sense núvols per sota de 1500 mi sense presència de cumulonimbus.

TAF: DAAY 250200Z 2503/2512 18010KT CAVOK

Observacions i pronòstics meteorològics de més de 4000 aeroports (METAR i TAF).

Les estacions disponibles són els punts grocs i vermells al mapa.

Posi el ratolí al punt desitjat per veure el nom de l'estació.

Feu clic per veure les observacions i els pronòstics meteorològics.

Per canviar el mapa: feu clic els botons verds amb una creu de color negre per apropar; al botó verd amb un guió per allunyar la imatge; o en les fletxes verdes per a mapes adjacents.


METAR-TAF: